Time;durP1;ratioP1;P1;durP2;ratioP2;P2;SDS_P1;SDS_P2;PMS_P1;PMS_P2;Temp;Humidity;BMP_temperature;BMP_pressure;BME280_temperature;BME280_humidity;BME280_pressure;Samples;Min_cycle;Max_cycle;Signal;HPM_P1;HPM_P2
2021/04/05 00:01:44;;;;;;;27.58;17.70;;;;;;;;;;5114994;28;20197;-56
2021/04/05 00:04:11;;;;;;;29.70;19.65;;;;;;;;;;5114914;28;20197;-54
2021/04/05 00:06:51;;;;;;;36.88;22.77;;;;;;;;;;5114158;28;20197;-49
2021/04/05 00:09:17;;;;;;;31.92;18.90;;;;;;;;;;5118222;28;20213;-54
2021/04/05 00:11:45;;;;;;;29.85;18.67;;;;;;;;;;5118315;28;20205;-54
2021/04/05 00:14:18;;;;;;;32.53;19.83;;;;;;;;;;5118976;28;20197;-50
2021/04/05 00:16:46;;;;;;;33.53;18.30;;;;;;;;;;5118664;28;20240;-50
2021/04/05 00:19:13;;;;;;;151.18;73.75;;;;;;;;;;5118312;28;20190;-51
2021/04/05 00:21:41;;;;;;;132.05;67.32;;;;;;;;;;5118283;28;20265;-52
2021/04/05 00:24:08;;;;;;;60.53;31.27;;;;;;;;;;5118531;28;20232;-53
2021/04/05 00:26:35;;;;;;;33.47;18.50;;;;;;;;;;5117618;28;20197;-50
2021/04/05 00:32:07;;;;;;;35.67;20.42;;;;;;;;;;5118741;28;20271;-49
2021/04/05 00:34:33;;;;;;;33.33;16.83;;;;;;;;;;5117841;28;20263;-51
2021/04/05 00:37:00;;;;;;;26.95;17.35;;;;;;;;;;5118731;28;20217;-55
2021/04/05 00:39:27;;;;;;;40.33;20.38;;;;;;;;;;5118013;28;20255;-52
2021/04/05 00:41:54;;;;;;;26.90;15.55;;;;;;;;;;5118617;28;20194;-54
2021/04/05 00:44:21;;;;;;;22.50;15.55;;;;;;;;;;5117841;28;20200;-53
2021/04/05 00:46:49;;;;;;;29.83;16.60;;;;;;;;;;5117830;28;20225;-49
2021/04/05 00:49:18;;;;;;;24.25;15.55;;;;;;;;;;5118276;28;20220;-52
2021/04/05 00:51:45;;;;;;;34.10;16.75;;;;;;;;;;5118008;28;20235;-52
2021/04/05 00:54:12;;;;;;;39.08;17.83;;;;;;;;;;5118197;28;20213;-54
2021/04/05 00:56:52;;;;;;;26.00;15.88;;;;;;;;;;5118161;28;20181;-48
2021/04/05 00:59:19;;;;;;;23.13;15.25;;;;;;;;;;5118260;28;20208;-50
2021/04/05 01:01:46;;;;;;;34.10;17.65;;;;;;;;;;5117542;28;20607;-56
2021/04/05 01:04:12;;;;;;;25.63;15.73;;;;;;;;;;5116972;28;20263;-53
2021/04/05 01:06:40;;;;;;;28.40;15.95;;;;;;;;;;5117748;28;20197;-49
2021/04/05 01:09:07;;;;;;;33.40;16.92;;;;;;;;;;5118340;28;20189;-47
2021/04/05 01:11:34;;;;;;;29.27;17.38;;;;;;;;;;5117586;28;20205;-51
2021/04/05 01:14:01;;;;;;;26.27;15.60;;;;;;;;;;5117460;28;20189;-49
2021/04/05 01:16:31;;;;;;;24.98;15.55;;;;;;;;;;5117778;28;20215;-50
2021/04/05 01:18:58;;;;;;;27.92;16.10;;;;;;;;;;5116345;28;20247;-52
2021/04/05 01:21:26;;;;;;;33.60;16.08;;;;;;;;;;5117641;28;20205;-48
2021/04/05 01:23:55;;;;;;;33.10;16.75;;;;;;;;;;5117437;28;20189;-53
2021/04/05 01:26:22;;;;;;;36.30;16.08;;;;;;;;;;5117869;28;20194;-54
2021/04/05 01:28:48;;;;;;;30.75;16.58;;;;;;;;;;5117428;28;20209;-55
2021/04/05 01:31:17;;;;;;;30.65;16.55;;;;;;;;;;5116955;28;20216;-53
2021/04/05 01:33:44;;;;;;;28.15;15.63;;;;;;;;;;5116753;28;20233;-53
2021/04/05 01:36:12;;;;;;;23.45;14.75;;;;;;;;;;5117177;28;20189;-51
2021/04/05 01:41:43;;;;;;;29.00;16.27;;;;;;;;;;5117028;28;20230;-48
2021/04/05 01:44:10;;;;;;;27.13;15.85;;;;;;;;;;5117209;28;20253;-52
2021/04/05 01:46:43;;;;;;;27.48;15.25;;;;;;;;;;5116754;28;20229;-53
2021/04/05 01:49:10;;;;;;;21.27;14.60;;;;;;;;;;5117397;28;20278;-47
2021/04/05 01:51:37;;;;;;;24.83;14.45;;;;;;;;;;5116887;28;20205;-54
2021/04/05 01:54:07;;;;;;;30.17;15.73;;;;;;;;;;5117026;28;20216;-53
2021/04/05 01:56:33;;;;;;;24.17;14.15;;;;;;;;;;5116805;28;20224;-52
2021/04/05 01:59:01;;;;;;;32.22;14.77;;;;;;;;;;5117001;28;20219;-48
2021/04/05 02:01:33;;;;;;;28.83;15.73;;;;;;;;;;5116405;28;20194;-54
2021/04/05 02:04:02;;;;;;;24.23;15.40;;;;;;;;;;5116759;28;20206;-53
2021/04/05 02:06:30;;;;;;;17.20;12.55;;;;;;;;;;5116826;28;20216;-48
2021/04/05 02:12:01;;;;;;;27.48;14.85;;;;;;;;;;5116277;28;20188;-51
2021/04/05 02:14:28;;;;;;;35.30;17.05;;;;;;;;;;5116182;28;20339;-49
2021/04/05 02:19:59;;;;;;;23.13;15.27;;;;;;;;;;5116251;28;20184;-51
2021/04/05 02:22:26;;;;;;;25.98;16.80;;;;;;;;;;5116394;28;20221;-53
2021/04/05 02:25:30;;;;;;;24.60;14.80;;;;;;;;;;5116314;28;20205;-54
2021/04/05 02:27:57;;;;;;;27.13;14.70;;;;;;;;;;5114510;28;20220;-52
2021/04/05 02:30:28;;;;;;;23.95;14.80;;;;;;;;;;5116166;28;20197;-54
2021/04/05 02:32:56;;;;;;;33.67;15.38;;;;;;;;;;5115671;28;20205;-54
2021/04/05 02:35:23;;;;;;;25.50;14.43;;;;;;;;;;5116904;28;20212;-51
2021/04/05 02:37:56;;;;;;;27.55;15.60;;;;;;;;;;5115879;28;20286;-49
2021/04/05 02:40:24;;;;;;;28.90;15.70;;;;;;;;;;5116064;28;20177;-49
2021/04/05 02:42:52;;;;;;;23.13;14.80;;;;;;;;;;5116555;28;20220;-52
2021/04/05 02:45:31;;;;;;;23.92;15.05;;;;;;;;;;5116063;28;20201;-50
2021/04/05 02:48:00;;;;;;;29.40;15.85;;;;;;;;;;5116207;28;20201;-48
2021/04/05 02:50:28;;;;;;;33.92;15.73;;;;;;;;;;5115889;28;20205;-55
2021/04/05 02:53:00;;;;;;;25.83;14.35;;;;;;;;;;5116189;28;20197;-54
2021/04/05 02:55:28;;;;;;;26.60;14.48;;;;;;;;;;5115735;28;20177;-53
2021/04/05 02:57:56;;;;;;;24.95;15.18;;;;;;;;;;5115898;28;20288;-47
2021/04/05 03:00:23;;;;;;;25.63;15.35;;;;;;;;;;5115737;28;20197;-55
2021/04/05 03:02:52;;;;;;;27.95;17.17;;;;;;;;;;5115809;28;20213;-52
2021/04/05 03:05:22;;;;;;;28.92;15.98;;;;;;;;;;5115772;28;20197;-53
2021/04/05 03:07:49;;;;;;;27.73;14.00;;;;;;;;;;5116078;28;20216;-58
2021/04/05 03:10:17;;;;;;;24.75;16.08;;;;;;;;;;5116093;28;20216;-51
2021/04/05 03:12:54;;;;;;;30.80;14.95;;;;;;;;;;5115995;28;20220;-56
2021/04/05 03:15:22;;;;;;;31.35;16.33;;;;;;;;;;5116043;28;20213;-45
2021/04/05 03:17:50;;;;;;;26.13;15.63;;;;;;;;;;5115345;28;20225;-55
2021/04/05 03:20:19;;;;;;;27.55;14.90;;;;;;;;;;5115917;28;20193;-53
2021/04/05 03:22:46;;;;;;;29.33;15.30;;;;;;;;;;5115520;28;20192;-47
2021/04/05 03:25:20;;;;;;;25.58;15.85;;;;;;;;;;5115827;28;20200;-55
2021/04/05 03:27:47;;;;;;;23.98;14.20;;;;;;;;;;5115569;28;20243;-58
2021/04/05 03:30:16;;;;;;;23.05;14.43;;;;;;;;;;5115150;28;20209;-52
2021/04/05 03:32:54;;;;;;;25.30;15.98;;;;;;;;;;5115209;28;20209;-52
2021/04/05 03:35:24;;;;;;;29.50;16.55;;;;;;;;;;5115043;28;20210;-51
2021/04/05 03:37:50;;;;;;;32.10;14.48;;;;;;;;;;5115430;28;20222;-50
2021/04/05 03:40:18;;;;;;;28.52;15.63;;;;;;;;;;5114762;28;20248;-49
2021/04/05 03:42:47;;;;;;;35.88;15.05;;;;;;;;;;5116751;28;20220;-53
2021/04/05 03:45:17;;;;;;;27.63;18.55;;;;;;;;;;5119124;28;20220;-50
2021/04/05 03:47:50;;;;;;;28.10;15.90;;;;;;;;;;5119113;28;20193;-52
2021/04/05 03:50:18;;;;;;;23.77;14.75;;;;;;;;;;5118850;28;20220;-51
2021/04/05 03:52:49;;;;;;;26.85;14.73;;;;;;;;;;5119249;28;20190;-52
2021/04/05 03:55:20;;;;;;;29.58;14.88;;;;;;;;;;5119636;28;20210;-52
2021/04/05 03:57:48;;;;;;;28.60;16.80;;;;;;;;;;5119077;28;20256;-52
2021/04/05 04:00:16;;;;;;;30.40;16.60;;;;;;;;;;5118979;28;20220;-57
2021/04/05 04:03:01;;;;;;;27.90;17.08;;;;;;;;;;5118688;28;20307;-50
2021/04/05 04:05:32;;;;;;;23.35;15.13;;;;;;;;;;5118730;28;20208;-52
2021/04/05 04:08:07;;;;;;;27.23;15.05;;;;;;;;;;5118795;28;20208;-51
2021/04/05 04:10:37;;;;;;;27.80;15.35;;;;;;;;;;5118914;28;20204;-51
2021/04/05 04:13:05;;;;;;;27.27;16.10;;;;;;;;;;5118475;28;20216;-56
2021/04/05 04:15:33;;;;;;;39.45;17.08;;;;;;;;;;5118721;28;20196;-59
2021/04/05 04:18:03;;;;;;;31.08;16.73;;;;;;;;;;5118823;28;20236;-49
2021/04/05 04:20:30;;;;;;;26.60;15.68;;;;;;;;;;5119573;28;20193;-57
2021/04/05 04:23:19;;;;;;;27.30;15.38;;;;;;;;;;5118795;28;20193;-55
2021/04/05 04:25:47;;;;;;;32.20;17.42;;;;;;;;;;5118684;28;20205;-52
2021/04/05 04:28:16;;;;;;;26.95;15.00;;;;;;;;;;5118176;28;20240;-49
2021/04/05 04:31:00;;;;;;;28.52;15.95;;;;;;;;;;5118631;28;20213;-54
2021/04/05 04:33:28;;;;;;;30.17;16.55;;;;;;;;;;5117872;28;20208;-50
2021/04/05 04:35:55;;;;;;;31.48;15.23;;;;;;;;;;5118545;28;20217;-57
2021/04/05 04:38:23;;;;;;;29.08;15.00;;;;;;;;;;5118018;28;20233;-59
2021/04/05 04:40:51;;;;;;;29.73;15.48;;;;;;;;;;5117913;28;20292;-56
2021/04/05 04:43:48;;;;;;;27.10;14.45;;;;;;;;;;5118361;28;20216;-52
2021/04/05 04:46:15;;;;;;;31.48;14.32;;;;;;;;;;5113851;28;20225;-52
2021/04/05 04:48:44;;;;;;;28.80;14.38;;;;;;;;;;5117732;28;20262;-51
2021/04/05 04:51:17;;;;;;;26.20;15.02;;;;;;;;;;5118231;28;20208;-50
2021/04/05 04:53:43;;;;;;;27.70;14.25;;;;;;;;;;5117389;28;20205;-52
2021/04/05 04:56:12;;;;;;;20.63;12.85;;;;;;;;;;5118061;28;20265;-54
2021/04/05 04:58:41;;;;;;;29.95;13.30;;;;;;;;;;5117759;28;20237;-51
2021/04/05 05:01:08;;;;;;;34.72;15.57;;;;;;;;;;5116190;28;20206;-49
2021/04/05 05:03:35;;;;;;;31.58;15.90;;;;;;;;;;5117206;28;20220;-53
2021/04/05 05:06:22;;;;;;;29.85;14.27;;;;;;;;;;5117848;28;20236;-55
2021/04/05 05:08:50;;;;;;;29.83;15.63;;;;;;;;;;5115431;28;20229;-53
2021/04/05 05:11:17;;;;;;;24.02;13.05;;;;;;;;;;5117395;28;20209;-49
2021/04/05 05:13:45;;;;;;;32.40;15.18;;;;;;;;;;5117384;28;20212;-54
2021/04/05 05:16:12;;;;;;;25.42;14.20;;;;;;;;;;5117527;28;20209;-53
2021/04/05 05:18:48;;;;;;;30.00;14.38;;;;;;;;;;5117327;28;20214;-53
2021/04/05 05:21:16;;;;;;;32.00;13.73;;;;;;;;;;5117571;28;20220;-51
2021/04/05 05:23:44;;;;;;;22.85;14.68;;;;;;;;;;5117474;28;20209;-47
2021/04/05 05:26:11;;;;;;;24.90;14.32;;;;;;;;;;5117307;28;20197;-57
2021/04/05 05:28:40;;;;;;;24.80;13.45;;;;;;;;;;5116881;28;20212;-50
2021/04/05 05:31:07;;;;;;;27.75;14.93;;;;;;;;;;5116637;28;20227;-52
2021/04/05 05:33:35;;;;;;;32.65;15.10;;;;;;;;;;5115487;28;20197;-49
2021/04/05 05:36:02;;;;;;;34.80;15.55;;;;;;;;;;5117020;28;20237;-54
2021/04/05 05:38:29;;;;;;;29.90;16.17;;;;;;;;;;5117045;28;20229;-53
2021/04/05 05:41:00;;;;;;;25.23;16.75;;;;;;;;;;5116586;28;20212;-55
2021/04/05 05:43:33;;;;;;;25.65;15.52;;;;;;;;;;5112394;28;20193;-53
2021/04/05 05:46:14;;;;;;;28.10;14.80;;;;;;;;;;5116607;28;20193;-49
2021/04/05 05:48:52;;;;;;;25.20;16.38;;;;;;;;;;5116826;28;20715;-51
2021/04/05 05:51:24;;;;;;;23.48;14.85;;;;;;;;;;5116510;28;20216;-52
2021/04/05 05:54:01;;;;;;;30.25;16.55;;;;;;;;;;5117091;28;20236;-52
2021/04/05 05:56:41;;;;;;;23.85;14.25;;;;;;;;;;5116788;28;20215;-51
2021/04/05 05:59:18;;;;;;;29.67;16.30;;;;;;;;;;5116831;28;20216;-55
2021/04/05 06:02:09;;;;;;;40.92;16.63;;;;;;;;;;5096375;28;20217;-50
2021/04/05 06:04:59;;;;;;;41.22;17.23;;;;;;;;;;5113196;28;20366;-49
2021/04/05 06:07:33;;;;;;;38.42;17.23;;;;;;;;;;5116787;28;20291;-54
2021/04/05 06:10:11;;;;;;;30.40;16.85;;;;;;;;;;5114954;28;20269;-53
2021/04/05 06:12:41;;;;;;;33.03;17.02;;;;;;;;;;5116405;28;20232;-60
2021/04/05 06:15:14;;;;;;;29.60;15.80;;;;;;;;;;5116827;28;20197;-51
2021/04/05 06:17:59;;;;;;;28.15;16.35;;;;;;;;;;5115959;28;20221;-57
2021/04/05 06:20:31;;;;;;;27.88;17.13;;;;;;;;;;5116889;28;20220;-58
2021/04/05 06:23:00;;;;;;;41.63;16.77;;;;;;;;;;5115901;28;20205;-53
2021/04/05 06:25:45;;;;;;;32.53;17.75;;;;;;;;;;5116257;28;20201;-51
2021/04/05 06:28:17;;;;;;;36.97;16.58;;;;;;;;;;5116005;28;20208;-55
2021/04/05 06:30:49;;;;;;;35.58;16.40;;;;;;;;;;5116103;28;20216;-54
2021/04/05 06:36:34;;;;;;;30.02;17.35;;;;;;;;;;5105227;28;20212;-56
2021/04/05 06:39:04;;;;;;;37.42;19.35;;;;;;;;;;5115535;28;20208;-57
2021/04/05 06:41:54;;;;;;;34.88;19.88;;;;;;;;;;5116143;28;20189;-56
2021/04/05 06:44:39;;;;;;;38.38;18.55;;;;;;;;;;5115625;28;20204;-53
2021/04/05 06:47:12;;;;;;;29.35;17.17;;;;;;;;;;5115337;28;20193;-54
2021/04/05 06:49:53;;;;;;;28.75;18.48;;;;;;;;;;5115033;28;20206;-52
2021/04/05 06:55:35;;;;;;;29.52;18.60;;;;;;;;;;5108596;28;20184;-53
2021/04/05 06:58:06;;;;;;;35.00;19.85;;;;;;;;;;5113720;28;20231;-52
2021/04/05 07:00:38;;;;;;;38.75;17.90;;;;;;;;;;5115275;28;20281;-56
2021/04/05 07:03:22;;;;;;;34.58;18.70;;;;;;;;;;5102085;28;20270;-56
2021/04/05 07:05:59;;;;;;;34.53;20.35;;;;;;;;;;5115729;28;20193;-56
2021/04/05 07:08:30;;;;;;;46.28;21.45;;;;;;;;;;5115761;28;20208;-53
2021/04/05 07:11:05;;;;;;;35.05;20.33;;;;;;;;;;5116007;28;20271;-53
2021/04/05 07:13:39;;;;;;;35.15;19.00;;;;;;;;;;5116285;28;20201;-56
2021/04/05 07:16:10;;;;;;;33.50;21.67;;;;;;;;;;5115450;28;20224;-53
2021/04/05 07:18:40;;;;;;;31.73;19.98;;;;;;;;;;5119334;28;20217;-49
2021/04/05 07:21:20;;;;;;;44.90;20.00;;;;;;;;;;5119436;28;20197;-52
2021/04/05 07:23:54;;;;;;;40.95;22.92;;;;;;;;;;5119561;28;20208;-51
2021/04/05 07:26:35;;;;;;;38.92;20.15;;;;;;;;;;5119218;28;20228;-55
2021/04/05 07:29:08;;;;;;;35.22;19.48;;;;;;;;;;5119017;28;20221;-56
2021/04/05 07:31:50;;;;;;;34.40;21.25;;;;;;;;;;5118820;28;20217;-51
2021/04/05 07:34:35;;;;;;;41.33;22.27;;;;;;;;;;5118765;28;20197;-56
2021/04/05 07:37:25;;;;;;;37.17;19.58;;;;;;;;;;5119323;28;20197;-53
2021/04/05 07:40:03;;;;;;;40.08;20.50;;;;;;;;;;5119266;28;20209;-50
2021/04/05 07:42:42;;;;;;;35.50;19.27;;;;;;;;;;5119040;28;20201;-51
2021/04/05 07:45:18;;;;;;;37.15;22.00;;;;;;;;;;5119033;28;20213;-52
2021/04/05 07:47:48;;;;;;;47.38;21.30;;;;;;;;;;5119720;28;20212;-56
2021/04/05 07:50:31;;;;;;;35.58;20.08;;;;;;;;;;5118994;28;20189;-52
2021/04/05 07:53:00;;;;;;;34.58;18.30;;;;;;;;;;5118338;28;20197;-58
2021/04/05 07:55:27;;;;;;;34.13;19.33;;;;;;;;;;5118628;28;20193;-53
2021/04/05 07:58:01;;;;;;;41.88;18.77;;;;;;;;;;5105717;28;20234;-51
2021/04/05 08:00:33;;;;;;;29.17;19.45;;;;;;;;;;5098221;28;20210;-52
2021/04/05 08:03:24;;;;;;;31.00;18.98;;;;;;;;;;5112886;28;20189;-49
2021/04/05 08:05:59;;;;;;;36.67;18.20;;;;;;;;;;5110146;28;20224;-52
2021/04/05 08:08:38;;;;;;;46.42;21.15;;;;;;;;;;5118317;28;20185;-54
2021/04/05 08:11:29;;;;;;;35.45;18.50;;;;;;;;;;5118335;28;20212;-54
2021/04/05 08:14:23;;;;;;;28.75;18.55;;;;;;;;;;5086074;28;20201;-54
2021/04/05 08:16:54;;;;;;;29.88;18.35;;;;;;;;;;5117654;28;20208;-49
2021/04/05 08:19:24;;;;;;;34.67;19.20;;;;;;;;;;5117457;28;20253;-51
2021/04/05 08:22:02;;;;;;;30.33;18.38;;;;;;;;;;5107701;28;20205;-54
2021/04/05 08:24:33;;;;;;;38.22;17.90;;;;;;;;;;5118136;28;20197;-54
2021/04/05 08:27:10;;;;;;;30.15;17.20;;;;;;;;;;5117646;28;20201;-55
2021/04/05 08:30:01;;;;;;;35.40;21.10;;;;;;;;;;5117647;28;20212;-55
2021/04/05 08:32:36;;;;;;;42.65;18.23;;;;;;;;;;5118146;28;20193;-55
2021/04/05 08:35:13;;;;;;;31.88;17.67;;;;;;;;;;5117446;28;20260;-52
2021/04/05 08:37:45;;;;;;;28.10;18.13;;;;;;;;;;5118266;28;20233;-51
2021/04/05 08:40:14;;;;;;;21.35;11.48;;;;;;;;;;5113645;28;20198;-55
2021/04/05 08:42:51;;;;;;;13.40;6.40;;;;;;;;;;5097207;28;20193;-55
2021/04/05 08:45:21;;;;;;;12.35;5.30;;;;;;;;;;5097463;28;20213;-56
2021/04/05 08:47:50;;;;;;;20.33;9.25;;;;;;;;;;5116541;28;20205;-54
2021/04/05 08:53:21;;;;;;;7.28;4.63;;;;;;;;;;5115178;28;20224;-52
2021/04/05 08:55:50;;;;;;;13.93;5.47;;;;;;;;;;5098162;28;20198;-59
2021/04/05 08:58:36;;;;;;;9.43;4.03;;;;;;;;;;5097846;28;20233;-57
2021/04/05 09:01:06;;;;;;;9.73;5.05;;;;;;;;;;5113959;28;20216;-55
2021/04/05 09:03:34;;;;;;;15.30;4.72;;;;;;;;;;5103939;28;20197;-51
2021/04/05 09:06:01;;;;;;;11.85;4.40;;;;;;;;;;5117079;28;20197;-57
2021/04/05 09:08:28;;;;;;;13.52;3.40;;;;;;;;;;5117461;28;20213;-53
2021/04/05 09:11:06;;;;;;;10.60;3.70;;;;;;;;;;5117529;28;20212;-54
2021/04/05 09:13:35;;;;;;;5.60;3.22;;;;;;;;;;5117019;28;20193;-58
2021/04/05 09:16:24;;;;;;;7.68;3.75;;;;;;;;;;5116879;28;20189;-53
2021/04/05 09:19:16;;;;;;;10.40;4.45;;;;;;;;;;5117086;28;20227;-53
2021/04/05 09:22:04;;;;;;;7.40;4.15;;;;;;;;;;5116583;28;20194;-52
2021/04/05 09:24:49;;;;;;;6.75;3.00;;;;;;;;;;5071553;28;20202;-58
2021/04/05 09:27:29;;;;;;;7.80;3.47;;;;;;;;;;5097250;28;20193;-49
2021/04/05 09:30:29;;;;;;;9.18;3.45;;;;;;;;;;5096581;28;20454;-58
2021/04/05 09:33:21;;;;;;;5.95;2.40;;;;;;;;;;5098546;28;20198;-53
2021/04/05 09:35:52;;;;;;;5.10;2.83;;;;;;;;;;5105944;28;20230;-58
2021/04/05 09:41:46;;;;;;;5.75;2.20;;;;;;;;;;5114045;28;20278;-59
2021/04/05 09:44:27;;;;;;;6.85;2.70;;;;;;;;;;5103730;28;20209;-58
2021/04/05 09:50:08;;;;;;;6.20;2.00;;;;;;;;;;5111648;28;20211;-47
2021/04/05 09:52:44;;;;;;;4.05;2.25;;;;;;;;;;5106009;28;20201;-58
2021/04/05 09:55:20;;;;;;;4.45;2.38;;;;;;;;;;5105580;28;20210;-58
2021/04/05 09:57:52;;;;;;;5.18;2.38;;;;;;;;;;5111567;28;20244;-56
2021/04/05 10:00:20;;;;;;;9.63;3.42;;;;;;;;;;5116210;28;20185;-56
2021/04/05 10:03:16;;;;;;;9.15;3.40;;;;;;;;;;5116348;28;20215;-52
2021/04/05 10:05:44;;;;;;;6.30;4.13;;;;;;;;;;5106407;28;20225;-49
2021/04/05 10:08:15;;;;;;;7.05;4.95;;;;;;;;;;5103174;28;20491;-51
2021/04/05 10:13:48;;;;;;;10.65;6.82;;;;;;;;;;5109935;28;20239;-54
2021/04/05 10:16:16;;;;;;;5.80;3.85;;;;;;;;;;5115778;28;20181;-54
2021/04/05 10:19:01;;;;;;;10.32;3.20;;;;;;;;;;5115986;28;20225;-47
2021/04/05 10:21:29;;;;;;;8.38;1.60;;;;;;;;;;5114228;28;20287;-52
2021/04/05 10:23:57;;;;;;;4.30;1.75;;;;;;;;;;5102238;28;20201;-50
2021/04/05 10:26:36;;;;;;;10.63;2.30;;;;;;;;;;5116018;28;20197;-54
2021/04/05 10:29:04;;;;;;;5.22;1.40;;;;;;;;;;5102368;28;20197;-58
2021/04/05 10:31:32;;;;;;;8.32;2.33;;;;;;;;;;5115959;28;20189;-58
2021/04/05 10:34:07;;;;;;;3.90;1.63;;;;;;;;;;5116021;28;20193;-48
2021/04/05 10:36:38;;;;;;;7.07;2.47;;;;;;;;;;5116305;28;20258;-54
2021/04/05 10:39:05;;;;;;;9.50;2.08;;;;;;;;;;5115603;28;20225;-57
2021/04/05 10:41:34;;;;;;;3.97;1.50;;;;;;;;;;5116615;28;20250;-54
2021/04/05 10:44:02;;;;;;;6.10;2.22;;;;;;;;;;5115965;28;20197;-52
2021/04/05 10:46:42;;;;;;;7.63;2.63;;;;;;;;;;5116181;28;20181;-57
2021/04/05 10:49:10;;;;;;;7.47;2.70;;;;;;;;;;5115909;28;20211;-49
2021/04/05 10:51:40;;;;;;;12.25;3.20;;;;;;;;;;5116517;28;20200;-53
2021/04/05 10:54:10;;;;;;;8.95;2.45;;;;;;;;;;5116086;28;20213;-54
2021/04/05 10:56:38;;;;;;;12.02;2.85;;;;;;;;;;5115736;28;20213;-50
2021/04/05 10:59:15;;;;;;;14.90;2.97;;;;;;;;;;5115670;28;20263;-56
2021/04/05 11:01:44;;;;;;;4.85;1.95;;;;;;;;;;5114925;28;20197;-48
2021/04/05 11:04:12;;;;;;;11.65;3.10;;;;;;;;;;5115785;28;20185;-52
2021/04/05 11:06:59;;;;;;;14.63;3.05;;;;;;;;;;5115984;28;20227;-50
2021/04/05 11:09:27;;;;;;;10.50;3.83;;;;;;;;;;5114840;28;20268;-49
2021/04/05 11:11:55;;;;;;;10.27;2.47;;;;;;;;;;5115104;28;20209;-55
2021/04/05 11:14:28;;;;;;;10.85;2.75;;;;;;;;;;5115454;28;20216;-48
2021/04/05 11:16:58;;;;;;;10.98;1.80;;;;;;;;;;5115794;28;20189;-51
2021/04/05 11:19:30;;;;;;;8.93;2.60;;;;;;;;;;5115847;28;20209;-52
2021/04/05 11:22:07;;;;;;;8.18;2.67;;;;;;;;;;5115791;28;20213;-52
2021/04/05 11:24:38;;;;;;;8.05;2.35;;;;;;;;;;5115212;28;20231;-58
2021/04/05 11:27:10;;;;;;;7.28;2.20;;;;;;;;;;5115512;28;20216;-53
2021/04/05 11:29:38;;;;;;;8.48;2.95;;;;;;;;;;5114107;28;20225;-53
2021/04/05 11:32:11;;;;;;;10.32;2.28;;;;;;;;;;5113932;28;20201;-52
2021/04/05 11:34:43;;;;;;;6.55;2.03;;;;;;;;;;5110855;28;20231;-50
2021/04/05 11:37:12;;;;;;;24.40;2.65;;;;;;;;;;5113482;28;20193;-52
2021/04/05 11:42:46;;;;;;;4.75;1.80;;;;;;;;;;5114499;28;20216;-52
2021/04/05 11:45:15;;;;;;;4.50;2.30;;;;;;;;;;5116449;28;20206;-51
2021/04/05 11:50:46;;;;;;;8.18;2.67;;;;;;;;;;5110035;28;20226;-50
2021/04/05 11:53:23;;;;;;;5.90;2.15;;;;;;;;;;5116422;28;20257;-52
2021/04/05 11:56:16;;;;;;;8.63;2.47;;;;;;;;;;5096268;28;20205;-53
2021/04/05 11:58:52;;;;;;;16.60;7.25;;;;;;;;;;5095980;28;20224;-55
2021/04/05 12:01:21;;;;;;;8.70;2.60;;;;;;;;;;5096028;28;20198;-49
2021/04/05 12:06:58;;;;;;;8.13;2.50;;;;;;;;;;5113774;28;20296;-52
2021/04/05 12:09:27;;;;;;;6.85;2.80;;;;;;;;;;5119256;28;20291;-51
2021/04/05 12:15:18;;;;;;;3.67;1.40;;;;;;;;;;5116824;28;20250;-58
2021/04/05 12:17:48;;;;;;;7.28;2.38;;;;;;;;;;5118728;28;20237;-57
2021/04/05 12:20:17;;;;;;;4.25;2.10;;;;;;;;;;5118591;28;20197;-54
2021/04/05 12:22:46;;;;;;;12.10;4.85;;;;;;;;;;5119110;28;20521;-52
2021/04/05 12:25:14;;;;;;;14.93;6.22;;;;;;;;;;5118851;28;20200;-55
2021/04/05 12:28:17;;;;;;;4.57;2.67;;;;;;;;;;5108208;28;20520;-57
2021/04/05 12:30:45;;;;;;;6.75;3.08;;;;;;;;;;5098637;28;20212;-58
2021/04/05 12:33:15;;;;;;;5.28;1.58;;;;;;;;;;5117093;28;20217;-50
2021/04/05 12:36:23;;;;;;;3.85;1.55;;;;;;;;;;5119031;28;20277;-58
2021/04/05 12:38:53;;;;;;;7.93;1.90;;;;;;;;;;5117313;28;20213;-59
2021/04/05 12:41:39;;;;;;;3.00;1.58;;;;;;;;;;5108574;28;20196;-58
2021/04/05 12:44:08;;;;;;;14.82;3.45;;;;;;;;;;5108308;28;20227;-58
2021/04/05 12:46:36;;;;;;;7.60;2.40;;;;;;;;;;5118561;28;20202;-52
2021/04/05 12:49:35;;;;;;;9.02;1.88;;;;;;;;;;5118007;28;20206;-54
2021/04/05 12:52:04;;;;;;;4.05;1.65;;;;;;;;;;5118612;28;20251;-57
2021/04/05 12:54:38;;;;;;;9.65;2.97;;;;;;;;;;5118583;28;20203;-57
2021/04/05 12:57:16;;;;;;;10.65;2.80;;;;;;;;;;5118638;28;20197;-48
2021/04/05 12:59:44;;;;;;;9.05;3.10;;;;;;;;;;5118268;28;20232;-57
2021/04/05 13:02:14;;;;;;;11.23;3.08;;;;;;;;;;5119074;28;20205;-58
2021/04/05 13:04:59;;;;;;;10.30;2.80;;;;;;;;;;5119001;28;20212;-56
2021/04/05 13:07:38;;;;;;;8.25;2.60;;;;;;;;;;5116334;28;20217;-51
2021/04/05 13:10:08;;;;;;;11.32;3.55;;;;;;;;;;5118393;28;20197;-51
2021/04/05 13:12:37;;;;;;;13.48;3.08;;;;;;;;;;5118135;28;20205;-60
2021/04/05 13:15:13;;;;;;;10.98;3.75;;;;;;;;;;5117718;28;20201;-60
2021/04/05 13:17:42;;;;;;;12.23;4.32;;;;;;;;;;5118147;28;20242;-52
2021/04/05 13:20:11;;;;;;;11.43;3.78;;;;;;;;;;5118714;28;20197;-54
2021/04/05 13:22:41;;;;;;;9.77;2.88;;;;;;;;;;5117923;28;20208;-53
2021/04/05 13:25:10;;;;;;;8.35;2.55;;;;;;;;;;5117347;28;20219;-54
2021/04/05 13:27:37;;;;;;;5.90;2.65;;;;;;;;;;5118432;28;20189;-59
2021/04/05 13:30:06;;;;;;;4.55;2.08;;;;;;;;;;5117886;28;20261;-49
2021/04/05 13:32:38;;;;;;;16.58;4.68;;;;;;;;;;5118123;28;20177;-51
2021/04/05 13:35:08;;;;;;;5.45;2.53;;;;;;;;;;5117686;28;20199;-56
2021/04/05 13:37:36;;;;;;;5.30;2.30;;;;;;;;;;5117793;28;20205;-55
2021/04/05 13:40:26;;;;;;;7.32;2.88;;;;;;;;;;5117744;28;20212;-55
2021/04/05 13:42:54;;;;;;;4.60;2.10;;;;;;;;;;5115955;28;20224;-55
2021/04/05 13:45:28;;;;;;;7.60;3.35;;;;;;;;;;5117354;28;20201;-57
2021/04/05 13:48:03;;;;;;;9.90;2.88;;;;;;;;;;5117600;28;20197;-60
2021/04/05 13:50:31;;;;;;;5.68;2.63;;;;;;;;;;5115634;28;20212;-57
2021/04/05 13:52:59;;;;;;;7.15;1.92;;;;;;;;;;5116835;28;20265;-53
2021/04/05 13:58:34;;;;;;;5.13;1.98;;;;;;;;;;5114491;28;20338;-57
2021/04/05 14:01:09;;;;;;;6.70;2.63;;;;;;;;;;5117172;28;20196;-49
2021/04/05 14:03:37;;;;;;;6.55;2.80;;;;;;;;;;5116892;28;20251;-56
2021/04/05 14:06:14;;;;;;;17.40;3.60;;;;;;;;;;5116860;28;20189;-54
2021/04/05 14:11:37;;;;;;;4.95;2.33;;;;;;;;;;5115999;28;20231;-56
2021/04/05 14:17:11;;;;;;;9.68;4.10;;;;;;;;;;5116954;28;20203;-59
2021/04/05 14:19:45;;;;;;;8.00;2.53;;;;;;;;;;5116130;28;20313;-59
2021/04/05 14:22:16;;;;;;;7.25;2.60;;;;;;;;;;5116842;28;20197;-55
2021/04/05 14:24:46;;;;;;;6.18;2.30;;;;;;;;;;5113992;28;20221;-59
2021/04/05 14:27:15;;;;;;;4.85;2.25;;;;;;;;;;5115361;28;20244;-60
2021/04/05 14:30:02;;;;;;;5.57;1.80;;;;;;;;;;5116404;28;20212;-54
2021/04/05 14:32:50;;;;;;;8.32;3.60;;;;;;;;;;5115922;28;20193;-53
2021/04/05 14:35:24;;;;;;;13.15;6.18;;;;;;;;;;5124656;28;20197;-51
2021/04/05 14:37:58;;;;;;;15.65;4.93;;;;;;;;;;5105524;28;20224;-57
2021/04/05 14:40:32;;;;;;;6.82;3.05;;;;;;;;;;5115893;28;20200;-60
2021/04/05 14:43:35;;;;;;;4.95;2.70;;;;;;;;;;5115994;28;20208;-60
2021/04/05 14:46:03;;;;;;;5.15;1.80;;;;;;;;;;5115925;28;20201;-60
2021/04/05 14:48:32;;;;;;;7.30;1.83;;;;;;;;;;5115865;28;20196;-61
2021/04/05 14:51:09;;;;;;;7.35;1.50;;;;;;;;;;5115773;28;20268;-59
2021/04/05 14:53:38;;;;;;;4.10;1.60;;;;;;;;;;5115620;28;20189;-60
2021/04/05 14:56:31;;;;;;;11.70;2.42;;;;;;;;;;5115449;28;20208;-59
2021/04/05 14:59:00;;;;;;;5.55;2.05;;;;;;;;;;5115869;28;20288;-57
2021/04/05 15:01:38;;;;;;;6.75;1.38;;;;;;;;;;5115144;28;20200;-58
2021/04/05 15:04:36;;;;;;;6.75;1.65;;;;;;;;;;5109949;28;20201;-51
2021/04/05 15:07:08;;;;;;;5.25;1.52;;;;;;;;;;5115440;28;20185;-58
2021/04/05 15:09:38;;;;;;;5.03;1.70;;;;;;;;;;5098896;28;20214;-54
2021/04/05 15:12:08;;;;;;;12.23;2.08;;;;;;;;;;5115981;28;20200;-55
2021/04/05 15:14:37;;;;;;;10.60;3.05;;;;;;;;;;5109711;28;20217;-58
2021/04/05 15:17:05;;;;;;;5.93;1.65;;;;;;;;;;5115599;28;20414;-55
2021/04/05 15:19:33;;;;;;;5.38;1.50;;;;;;;;;;5110702;28;20311;-59
2021/04/05 15:22:01;;;;;;;3.75;1.10;;;;;;;;;;5103649;28;20249;-54
2021/04/05 15:24:38;;;;;;;9.82;1.38;;;;;;;;;;5116046;28;20192;-59
2021/04/05 15:27:06;;;;;;;5.47;1.20;;;;;;;;;;5115471;28;20210;-55
2021/04/05 15:29:47;;;;;;;5.35;2.03;;;;;;;;;;5109928;28;20201;-56
2021/04/05 15:32:24;;;;;;;6.65;1.75;;;;;;;;;;5096104;28;20209;-54
2021/04/05 15:34:52;;;;;;;4.30;1.60;;;;;;;;;;5110011;28;20243;-59
2021/04/05 15:37:20;;;;;;;4.30;1.20;;;;;;;;;;5115984;28;20205;-54
2021/04/05 15:40:06;;;;;;;3.75;1.30;;;;;;;;;;5118742;28;20221;-59
2021/04/05 15:42:41;;;;;;;9.43;1.65;;;;;;;;;;5117728;28;20225;-56
2021/04/05 15:45:10;;;;;;;10.57;1.42;;;;;;;;;;5119754;28;20204;-56
2021/04/05 15:47:41;;;;;;;4.70;1.40;;;;;;;;;;5120123;28;20251;-53
2021/04/05 15:50:09;;;;;;;4.95;1.15;;;;;;;;;;5120233;28;20188;-60
2021/04/05 16:07:52;;;;;;;3.15;1.25;;;;;;;;;;5116120;28;20272;-57